Inicio METAR Ruta Wind Satelite

Informe Meteorológico

Fecha: 2024/06/18 20:26:27 Local
2024.06.19 01:26 UTC


Operación:VFR
SKPS 190100Z AUTO 02003KT 330V050 9999 FEW001/// BKN003/// OVC004/// 18/18 Q1019 =

SKPS 182200Z 33005KT 270V360 9999 SCT028 22/17 Q1017
SKPS 182100Z 36006KT 310V040 9999 SCT028 24/16 Q1016
SKPS 182000Z 36007KT 9999 SCT028 24/15 Q1017
SKPS 181900Z 33007KT 290V350 9999 SCT028 25/14 Q1018
SKPS 181800Z 33005KT 290V030 9999 FEW028 24/12 Q1018